Flight Track Log - Related Links

Times and Time Zones

All times are in EDT time to prevent confusion due to time zone crossing. See the N53NW flight status page for this flight to view local times or setup timezone preferences in your user account.

Time Position Orientation Groundspeed Altitude Reporting Facility
EDT Latitude Longitude Course Direction KTS MPH feet Rate Location/Type
Sat 12:11:46 PM 38.2667 -85.7667 245° Southwest 215 247 4,600  Level Louisville TRACON
Sat 12:13:00 PM 38.2758 -85.8542 278° West 236 272 8,100 3,221 Climbing Indianapolis Center
Sat 12:14:02 PM 38.2469 -85.9261 243° Southwest 238 274 11,900 3,561 Climbing Indianapolis Center
Sat 12:15:03 PM 38.2272 -86.0044 252° West 234 269 15,400 3,268 Climbing Indianapolis Center
Sat 12:16:00 PM 38.2309 -86.4153 265° West  Level Estimated
Sat 12:16:05 PM 38.2075 -86.0817 252° West 230 265 18,600  Level Indianapolis Center
Sat 12:17:00 PM 38.1930 -86.5184 245° Southwest  Level FlightAware Approximate
Sat 12:17:06 PM 38.1867 -86.1619 252° West 236 272 21,600  Level Indianapolis Center
Sat 12:18:08 PM 38.1664 -86.2397 252° West 233 268 24,600 2,585 Climbing Indianapolis Center
Sat 12:19:09 PM 38.1478 -86.3128 252° West 221 254 26,900 2,016 Climbing Indianapolis Center
Sat 12:20:10 PM 38.1281 -86.3897 252° West 224 258 28,700 1,707 Climbing Indianapolis Center
Sat 12:21:12 PM 38.1078 -86.4667 252° West 229 264 30,400 1,610 Climbing Indianapolis Center
Sat 12:22:13 PM 38.0869 -86.5442 251° West 231 266 32,000 1,415 Climbing Indianapolis Center
Sat 12:23:15 PM 38.0672 -86.6228 252° West 231 266 33,300 1,317 Climbing Indianapolis Center
Sat 12:24:16 PM 38.0539 -86.7233 260° West 245 282 34,700 1,230 Climbing Indianapolis Center
Sat 12:25:17 PM 38.0553 -86.8111 271° West 246 283 35,800 1,024 Climbing Indianapolis Center
Sat 12:26:19 PM 38.0558 -86.8983 270° West 246 283 36,800 927 Climbing Indianapolis Center
Sat 12:27:20 PM 38.0567 -86.9853 271° West 244 281 37,700 829 Climbing Indianapolis Center
Sat 12:28:22 PM 38.0575 -87.0747 271° West 249 287 38,500 829 Climbing Indianapolis Center
Sat 12:29:23 PM 38.0600 -87.1644 272° West 251 289 39,400 738 Climbing Indianapolis Center
Sat 12:30:24 PM 38.0614 -87.2542 271° West 252 290 40,000 293 Climbing Indianapolis Center
Sat 12:31:26 PM 38.0617 -87.3497 270° West 265 305 40,000  Level Indianapolis Center
Sat 12:32:27 PM 38.0633 -87.4536 271° West 285 328 40,000  Level Indianapolis Center
Sat 12:33:29 PM 38.0647 -87.5617 271° West 300 345 40,000  Level Indianapolis Center
Sat 12:34:30 PM 38.0664 -87.6717 271° West 307 353 40,000  Level Indianapolis Center
Sat 12:35:31 PM 38.0675 -87.7769 271° West 300 345 40,000  Level Indianapolis Center
Sat 12:36:33 PM 38.0678 -87.8853 270° West 303 349 40,000  Level Indianapolis Center
Sat 12:37:34 PM 38.0686 -87.9944 271° West 306 352 40,000  Level Indianapolis Center
Sat 12:38:36 PM 38.0700 -88.1028 271° West 307 353 40,000  Level Indianapolis Center
Sat 12:39:37 PM 38.0700 -88.2339 270° West 308 354 40,000  Level Indianapolis Center
Sat 12:40:39 PM 38.0708 -88.3414 271° West 305 351 40,000  Level Indianapolis Center
Sat 12:41:40 PM 38.0717 -88.4503 271° West 306 352 40,000  Level Indianapolis Center
Sat 12:42:42 PM 38.0719 -88.5589 270° West 306 352 40,000  Level Indianapolis Center
Sat 12:43:43 PM 38.0719 -88.6664 270° West 305 351 40,000  Level Indianapolis Center
Sat 12:44:45 PM 38.0719 -88.7731 270° West 302 348 40,000  Level Indianapolis Center
Sat 12:45:46 PM 38.0722 -88.8800 270° West 302 348 40,000  Level Indianapolis Center
Sat 12:46:48 PM 38.0717 -88.9875 270° West 303 349 40,000  Level Indianapolis Center
Sat 12:47:49 PM 38.0711 -89.0942 270° West 302 348 40,000  Level Indianapolis Center
Sat 12:48:51 PM 38.0717 -89.2014 270° West 303 349 40,000  Level Indianapolis Center
Sat 12:49:52 PM 38.0706 -89.3081 269° West 302 348 40,000  Level Indianapolis Center
Sat 12:50:54 PM 38.0689 -89.4378 269° West 305 351 40,000  Level Indianapolis Center
Sat 12:52:16 PM 38.0697 -89.5819 270° West 302 348 40,000  Level Kansas City Center
Sat 12:53:18 PM 38.0683 -89.6897 269° West 304 350 40,000  Level Kansas City Center
Sat 12:54:20 PM 38.0675 -89.8047 270° West 303 349 40,000  Level Kansas City Center
Sat 12:56:00 PM 38.0644 -89.9943 269° West  Level FlightAware Approximate
Sat 01:03:00 PM 38.0486 -90.7904 269° West  Level FlightAware Approximate
Sat 01:04:00 PM 38.0467 -90.9041 269° West  Level FlightAware Approximate
Sat 01:05:00 PM 38.0447 -91.0179 269° West  Level FlightAware Approximate
Sat 01:06:00 PM 38.0426 -91.1316 269° West  Level FlightAware Approximate
Sat 01:07:00 PM 38.0405 -91.2453 269° West  Level FlightAware Approximate
Sat 01:08:00 PM 38.0381 -91.3590 269° West  Level FlightAware Approximate
Sat 01:09:00 PM 38.0357 -91.4726 268° West  Level FlightAware Approximate
Sat 01:10:00 PM 38.0332 -91.5863 268° West  Level FlightAware Approximate
Sat 01:11:00 PM 38.0305 -91.7000 268° West  Level FlightAware Approximate
Sat 01:12:00 PM 38.0278 -91.8137 268° West  Level FlightAware Approximate
Sat 01:13:00 PM 38.0249 -91.9273 268° West  Level FlightAware Approximate
Sat 01:14:00 PM 38.0219 -92.0410 268° West  Level FlightAware Approximate
Sat 01:15:00 PM 38.0189 -92.1546 268° West  Level FlightAware Approximate
Sat 01:16:00 PM 38.0155 -92.2682 268° West  Level FlightAware Approximate
Sat 01:16:02 PM 38.0239 -92.1489 267° West 318 366 40,000  Level Kansas City Center
Sat 01:17:00 PM 38.0117 -92.3818 268° West  Level FlightAware Approximate
Sat 01:17:04 PM 38.0200 -92.2611 268° West 318 366 40,000  Level Kansas City Center
Sat 01:18:00 PM 38.0078 -92.4954 268° West  Level FlightAware Approximate
Sat 01:18:06 PM 38.0175 -92.3744 268° West 320 368 40,000  Level Kansas City Center
Sat 01:19:00 PM 38.0038 -92.6090 267° West  Level FlightAware Approximate
Sat 01:19:08 PM 38.0164 -92.4861 269° West 319 367 40,000  Level Kansas City Center
Sat 01:20:00 PM 37.9997 -92.7225 267° West  Level FlightAware Approximate
Sat 01:20:10 PM 38.0106 -92.6197 267° West 318 366 40,000  Level Kansas City Center
Sat 01:21:00 PM 37.9955 -92.8361 267° West  Level FlightAware Approximate
Sat 01:21:12 PM 38.0064 -92.7314 267° West 318 366 40,000  Level Kansas City Center
Sat 01:22:14 PM 38.0028 -92.8472 268° West 318 366 40,000  Level Kansas City Center
Sat 01:23:16 PM 37.9981 -92.9600 267° West 320 368 40,000  Level Kansas City Center
Sat 01:24:18 PM 37.9942 -93.0719 268° West 318 366 40,000  Level Kansas City Center
Sat 01:25:20 PM 37.9903 -93.1844 268° West 318 366 40,000  Level Kansas City Center
Sat 01:26:22 PM 37.9861 -93.2981 267° West 320 368 40,000  Level Kansas City Center
Sat 01:27:24 PM 37.9808 -93.4342 267° West 322 371 40,000  Level Kansas City Center
Sat 01:28:27 PM 37.9764 -93.5464 267° West 321 369 40,000  Level Kansas City Center
Sat 01:29:29 PM 37.9717 -93.6592 267° West 319 367 40,000  Level Kansas City Center
Sat 01:30:31 PM 37.9667 -93.7728 267° West 322 371 40,000  Level Kansas City Center
Sat 01:31:33 PM 37.9617 -93.8867 267° West 323 372 40,000  Level Kansas City Center
Sat 01:32:35 PM 37.9564 -93.9994 267° West 321 369 40,000  Level Kansas City Center
Sat 01:33:37 PM 37.9511 -94.1233 267° West 322 371 40,000  Level Kansas City Center
Sat 01:34:39 PM 37.9469 -94.2325 267° West 323 372 40,000  Level Kansas City Center
Sat 01:35:41 PM 37.9394 -94.3650 266° West 326 375 40,000  Level Kansas City Center
Sat 01:36:43 PM 37.9358 -94.4700 268° West 325 374 40,000  Level Kansas City Center
Sat 01:37:45 PM 37.9294 -94.5969 266° West 324 373 40,000  Level Kansas City Center
Sat 01:38:47 PM 37.9239 -94.7061 266° West 324 373 40,000  Level Kansas City Center
Sat 01:39:49 PM 37.9172 -94.8347 266° West 326 375 40,000  Level Kansas City Center
Sat 01:40:51 PM 37.9122 -94.9436 267° West 326 375 40,000  Level Kansas City Center
Sat 01:41:53 PM 37.9050 -95.0714 266° West 325 374 40,000  Level Kansas City Center
Sat 01:42:55 PM 37.8997 -95.1831 267° West 328 377 40,000  Level Kansas City Center
Sat 01:43:57 PM 37.8936 -95.2969 266° West 327 376 40,000  Level Kansas City Center
Sat 01:44:59 PM 37.8869 -95.4125 266° West 328 377 40,000  Level Kansas City Center
Sat 01:46:01 PM 37.8789 -95.5489 266° West 327 376 40,000  Level Kansas City Center
Sat 01:47:03 PM 37.8728 -95.6631 266° West 325 374 40,000  Level Kansas City Center
Sat 01:48:05 PM 37.8653 -95.7789 265° West 328 377 40,000  Level Kansas City Center
Sat 01:49:07 PM 37.8594 -95.8906 266° West 324 373 40,000  Level Kansas City Center
Sat 01:50:09 PM 37.8517 -96.0050 265° West 326 375 40,000  Level Kansas City Center
Sat 01:51:11 PM 37.8444 -96.1197 265° West 331 381 40,000  Level Kansas City Center
Sat 01:52:13 PM 37.8358 -96.2592 266° West 332 382 40,000  Level Kansas City Center
Sat 01:53:15 PM 37.8283 -96.3756 265° West 331 381 40,000  Level Kansas City Center
Sat 01:54:17 PM 37.8203 -96.4933 265° West 334 384 40,000  Level Kansas City Center
Sat 01:55:19 PM 37.8125 -96.6094 265° West 334 384 40,000  Level Kansas City Center
Sat 01:56:21 PM 37.8053 -96.7267 266° West 334 384 40,000  Level Kansas City Center
Sat 01:57:23 PM 37.7967 -96.8436 265° West 334 384 40,000  Level Kansas City Center
Sat 01:58:25 PM 37.7892 -96.9617 265° West 337 388 40,000  Level Kansas City Center
Sat 01:59:27 PM 37.7800 -97.1039 265° West 338 389 40,000  Level Kansas City Center
Sat 02:00:29 PM 37.7700 -97.2214 264° West 338 389 40,000  Level Kansas City Center
Sat 02:01:32 PM 37.7619 -97.3400 265° West 338 389 40,000  Level Kansas City Center
Sat 02:02:34 PM 37.7531 -97.4639 265° West 335 386 40,000  Level Kansas City Center
Sat 02:03:36 PM 37.7453 -97.5836 265° West 338 389 40,000  Level Kansas City Center
Sat 02:04:37 PM 37.7528 -97.7017 275° West 336 387 40,000  Level Kansas City Center
Sat 02:05:39 PM 37.7606 -97.8219 275° West 340 391 40,000  Level Kansas City Center
Sat 02:06:41 PM 37.7694 -97.9408 275° West 341 392 40,000  Level Kansas City Center
Sat 02:07:43 PM 37.7786 -98.0833 275° West 339 390 40,000  Level Kansas City Center
Sat 02:08:45 PM 37.7853 -98.2036 274° West 341 392 40,000  Level Kansas City Center
Sat 02:09:47 PM 37.7933 -98.3233 275° West 340 391 40,000  Level Kansas City Center
Sat 02:10:49 PM 37.8003 -98.4425 274° West 339 390 40,000  Level Kansas City Center
Sat 02:11:51 PM 37.8072 -98.5619 274° West 340 391 40,000  Level Kansas City Center
Sat 02:12:53 PM 37.8144 -98.6822 274° West 341 392 40,000  Level Kansas City Center
Sat 02:13:55 PM 37.8219 -98.8022 275° West 342 394 40,000  Level Kansas City Center
Sat 02:14:57 PM 37.8283 -98.9231 274° West 344 396 40,000  Level Kansas City Center
Sat 02:15:59 PM 37.8372 -99.0661 275° West 341 392 40,000  Level Kansas City Center
Sat 02:17:01 PM 37.8431 -99.1886 273° West 346 398 40,000  Level Kansas City Center
Sat 02:18:03 PM 37.8503 -99.3086 274° West 344 396 40,000  Level Kansas City Center
Sat 02:19:05 PM 37.8564 -99.4303 274° West 346 398 40,000  Level Kansas City Center
Sat 02:20:07 PM 37.8636 -99.5583 274° West 348 400 40,000  Level Kansas City Center
Sat 02:21:09 PM 37.8697 -99.6942 273° West 348 400 40,000  Level Kansas City Center
Sat 02:22:11 PM 37.8756 -99.8122 274° West 350 403 40,000  Level Kansas City Center
Sat 02:23:13 PM 37.8817 -99.9483 273° West 349 402 40,000  Level Kansas City Center
Sat 02:24:15 PM 37.8886 -100.0653 274° West 349 402 40,000  Level Kansas City Center
Sat 02:25:17 PM 37.8944 -100.2025 273° West 350 403 40,000  Level Kansas City Center
Sat 02:26:19 PM 37.9003 -100.3194 274° West 350 403 40,000  Level Kansas City Center
Sat 02:27:21 PM 37.9061 -100.4569 273° West 351 404 40,000  Level Kansas City Center
Sat 02:28:23 PM 37.9114 -100.5742 273° West 350 403 40,000  Level Kansas City Center
Sat 02:29:25 PM 37.9164 -100.7119 273° West 352 405 40,000  Level Kansas City Center
Sat 02:30:27 PM 37.9286 -100.8275 278° West 350 403 40,000  Level Kansas City Center
Sat 02:31:29 PM 37.9450 -100.9628 279° West 351 404 40,000  Level Kansas City Center
Sat 02:32:31 PM 37.9589 -101.0794 279° West 352 405 40,000  Level Kansas City Center
Sat 02:33:33 PM 37.9739 -101.2144 278° West 350 403 40,000  Level Kansas City Center
Sat 02:34:35 PM 37.9875 -101.3292 279° West 346 398 40,000  Level Kansas City Center
Sat 02:35:37 PM 38.0031 -101.4636 278° West 346 398 40,000  Level Kansas City Center
Sat 02:36:39 PM 38.0161 -101.5786 278° West 346 398 40,000  Level Kansas City Center
Sat 02:37:40 PM 38.0306 -101.7122 278° West 344 396 40,000 -293 Level Kansas City Center
Sat 02:38:42 PM 38.0425 -101.8275 278° West 345 397 39,400 -895 Descending Kansas City Center
Sat 02:39:34 PM 38.0536 -101.9233 278° West 338 389 38,300 -1,474 Descending Denver Center
Sat 02:40:36 PM 38.0672 -102.0617 277° West 352 405 36,600 -1,113 Descending Denver Center
Sat 02:41:38 PM 38.0800 -102.1750 278° West 338 389 36,000 -293 Descending Denver Center
Sat 02:42:39 PM 38.0936 -102.3044 278° West 332 382 36,000 -1,372 Level Denver Center
Sat 02:44:00 PM 38.1008 -102.4373 284° West  Level FlightAware Approximate
Sat 02:49:52 PM 38.1806 -103.1714 280° West 353 406 24,700  Level Denver Center
Sat 02:50:54 PM 38.1936 -103.3097 277° West 353 406 22,000 -2,419 Descending Denver Center
Sat 02:51:00 PM 38.1828 -103.2269 277° West  Level FlightAware Approximate
Sat 02:51:56 PM 38.2044 -103.4242 277° West 345 397 19,700  Level Denver Center
Sat 02:52:00 PM 38.1923 -103.3402 276° West  Level FlightAware Approximate
Sat 02:52:57 PM 38.2144 -103.5306 277° West 323 372 17,500  Level Denver Center
Sat 02:53:00 PM 38.2000 -103.4537 270° West  Level FlightAware Approximate
Sat 02:53:59 PM 38.2250 -103.6508 276° West 309 356 14,800  Level Denver Center
Sat 02:54:00 PM 38.2075 -103.5670 278° West  Level FlightAware Approximate
Sat 02:55:00 PM 38.2209 -103.6797 280° West  Level FlightAware Approximate
Sat 02:55:01 PM 38.2344 -103.7533 277° West 308 354 13,000  Level Denver Center
Sat 02:56:03 PM 38.2453 -103.8711 277° West 305 351 13,000 -683 Level Denver Center
Sat 02:57:04 PM 38.2544 -103.9714 277° West 302 348 11,600 -2,000 Descending Denver Center
Sat 02:58:06 PM 38.2639 -104.0800 276° West 291 335 8,900 -2,323 Descending Denver Center
Sat 02:59:08 PM 38.2728 -104.1633 278° West 271 312 6,800 -1,065 Descending Denver Center
Sat 03:00:10 PM 38.2842 -104.2472 280° West 241 277 6,700 -48 Descending Denver Center
Sat 03:01:12 PM 38.2911 -104.2969 280° West 182 209 6,700 -49 Level Denver Center
Sat 03:02:13 PM 38.2900 -104.3514 269° West 164 189 6,600 -439 Descending Denver Center
Sat 03:03:15 PM 38.2894 -104.4114 269° West 158 182 5,800 -726 Descending Denver Center
Sat 03:04:17 PM 38.2881 -104.4531 268° West 143 165 5,100 -677 Descending Denver Center
Sat 03:06:00 PM 38.2833 -104.4833 270° West  Level FlightAware Approximate
Sat 03:13:00 PM 38.2900 -104.4980 270° West  Level Estimated
Sat 03:14:00 PM 38.2900 -104.4980 270° West  Level Estimated

Login

Don't have an account? Register now (free) for customized features, flight alerts, and more!